createdAt,value
2022-07-29T00:00:13.290Z,12.19
2022-07-29T00:01:23.617Z,11.69
2022-07-29T00:02:30.828Z,12.50
2022-07-29T00:03:34.969Z,15.63
2022-07-29T00:04:39.158Z,11.63
2022-07-29T00:05:44.863Z,12.37
2022-07-29T00:06:50.555Z,11.44
2022-07-29T00:07:57.160Z,13.75
2022-07-29T00:09:01.189Z,12.88
2022-07-29T00:10:06.085Z,12.56
2022-07-29T00:11:10.279Z,15.69
2022-07-29T00:12:16.204Z,15.00
2022-07-29T00:13:32.269Z,14.94
2022-07-29T00:14:37.531Z,11.31
2022-07-29T00:15:40.398Z,12.31
2022-07-29T00:16:48.283Z,13.94
2022-07-29T00:17:53.837Z,13.69
2022-07-29T00:19:01.813Z,13.25
2022-07-29T00:20:04.169Z,14.31
2022-07-29T00:21:08.205Z,12.00
2022-07-29T00:22:12.250Z,14.56
2022-07-29T00:23:16.377Z,14.31
2022-07-29T00:24:22.097Z,14.38
2022-07-29T00:25:27.253Z,16.50
2022-07-29T00:26:32.655Z,14.19
2022-07-29T00:27:37.759Z,15.06
2022-07-29T00:28:44.798Z,18.44
2022-07-29T00:29:48.801Z,14.31
2022-07-29T00:30:53.400Z,14.00
2022-07-29T00:32:04.301Z,13.31
2022-07-29T00:33:05.891Z,13.13
2022-07-29T00:34:08.860Z,14.38
2022-07-29T00:35:14.549Z,13.69
2022-07-29T00:36:19.677Z,15.06
2022-07-29T00:37:26.388Z,6.06
2022-07-29T00:38:42.609Z,15.38
2022-07-29T00:39:36.271Z,13.00
2022-07-29T00:40:43.899Z,13.81
2022-07-29T00:41:49.426Z,15.88
2022-07-29T00:42:59.309Z,14.87
2022-07-29T00:45:07.117Z,15.00
2022-07-29T00:45:24.198Z,12.63
2022-07-29T00:46:28.585Z,18.56
2022-07-29T00:47:32.857Z,15.75
2022-07-29T00:48:37.257Z,15.94
2022-07-29T00:49:42.736Z,15.69
2022-07-29T00:50:51.470Z,15.06
2022-07-29T00:51:58.379Z,16.19
2022-07-29T00:53:14.911Z,16.37
2022-07-29T00:54:22.079Z,18.62
2022-07-29T00:55:33.068Z,15.88
2022-07-29T00:56:38.284Z,15.94
2022-07-29T00:58:05.562Z,17.19
2022-07-29T01:00:29.856Z,15.75
2022-07-29T01:01:37.172Z,15.63
2022-07-29T01:02:44.549Z,14.31
2022-07-29T01:03:49.902Z,14.87
2022-07-29T01:04:54.818Z,14.75
2022-07-29T01:06:03.176Z,13.38
2022-07-29T01:07:08.193Z,13.56
2022-07-29T01:08:16.319Z,13.94
2022-07-29T01:09:40.796Z,17.81
2022-07-29T01:10:29.299Z,17.31
2022-07-29T01:11:34.320Z,11.06
2022-07-29T01:12:42.448Z,13.06
2022-07-29T01:13:52.899Z,13.25
2022-07-29T01:15:02.988Z,15.56
2022-07-29T01:16:28.441Z,15.25
2022-07-29T01:17:26.170Z,14.81
2022-07-29T01:18:34.765Z,11.19
2022-07-29T01:19:44.466Z,12.88
2022-07-29T01:21:21.371Z,13.81
2022-07-29T01:22:47.938Z,15.56
2022-07-29T01:24:17.465Z,14.38
2022-07-29T01:25:36.003Z,16.06
2022-07-29T01:26:44.744Z,13.56
2022-07-29T01:28:15.356Z,16.44
2022-07-29T01:29:22.469Z,16.62
2022-07-29T01:31:01.566Z,13.94
2022-07-29T01:31:58.623Z,14.06
2022-07-29T01:33:02.481Z,18.37
2022-07-29T01:34:10.868Z,16.62
2022-07-29T01:35:22.363Z,16.44
2022-07-29T01:36:40.682Z,12.81
2022-07-29T01:38:03.103Z,14.63
2022-07-29T01:39:29.627Z,17.12
2022-07-29T01:40:48.404Z,9.94
2022-07-29T01:41:57.896Z,16.19
2022-07-29T01:43:05.341Z,17.44
2022-07-29T01:44:44.096Z,14.06
2022-07-29T01:45:31.734Z,14.44
2022-07-29T01:46:41.842Z,17.75
2022-07-29T01:48:05.510Z,17.69
2022-07-29T01:49:13.958Z,17.44
2022-07-29T01:50:24.347Z,14.94
2022-07-29T01:51:34.314Z,16.12
2022-07-29T01:53:05.099Z,14.63
2022-07-29T01:54:35.579Z,17.50
2022-07-29T01:55:47.598Z,12.94
2022-07-29T01:56:58.494Z,14.19
2022-07-29T01:58:07.531Z,17.87
2022-07-29T01:59:18.205Z,19.87
2022-07-29T02:00:33.662Z,16.00
2022-07-29T02:01:47.259Z,16.12
2022-07-29T02:02:54.350Z,19.81
2022-07-29T02:05:06.575Z,19.50
2022-07-29T02:05:13.482Z,14.25
2022-07-29T02:06:22.417Z,15.06
2022-07-29T02:07:30.892Z,20.81
2022-07-29T02:08:37.225Z,21.69
2022-07-29T02:09:42.592Z,18.62
2022-07-29T02:11:03.390Z,18.75
2022-07-29T02:12:00.148Z,19.12
2022-07-29T02:13:08.222Z,19.25
2022-07-29T02:14:14.765Z,19.44
2022-07-29T02:15:20.005Z,18.25
2022-07-29T02:16:35.053Z,19.56
2022-07-29T02:17:43.945Z,18.12
2022-07-29T02:18:51.366Z,23.19
2022-07-29T02:20:02.357Z,23.62
2022-07-29T02:21:15.172Z,22.87
2022-07-29T02:22:18.737Z,25.94
2022-07-29T02:23:50.383Z,25.88
2022-07-29T02:24:52.768Z,23.25
2022-07-29T02:26:03.148Z,21.31
2022-07-29T02:27:17.974Z,21.37
2022-07-29T02:28:28.177Z,25.44
2022-07-29T02:29:36.111Z,23.50
2022-07-29T02:31:00.182Z,24.37
2022-07-29T02:32:02.038Z,21.06
2022-07-29T02:33:09.233Z,23.44
2022-07-29T02:34:20.158Z,22.81
2022-07-29T02:35:34.954Z,21.19
2022-07-29T02:36:49.424Z,22.62
2022-07-29T02:37:50.375Z,19.87
2022-07-29T02:38:56.926Z,19.87
2022-07-29T02:40:01.942Z,24.12
2022-07-29T02:41:14.022Z,20.19
2022-07-29T02:42:20.015Z,24.31
2022-07-29T02:43:27.163Z,13.69
2022-07-29T02:44:34.682Z,25.94
2022-07-29T02:45:38.281Z,18.81
2022-07-29T02:46:46.873Z,20.12
2022-07-29T02:47:52.997Z,17.44
2022-07-29T02:49:05.713Z,21.19
2022-07-29T02:50:17.890Z,16.25
2022-07-29T02:51:45.662Z,20.19
2022-07-29T02:52:57.583Z,20.31
2022-07-29T02:54:04.753Z,22.13
2022-07-29T02:55:17.467Z,19.75
2022-07-29T02:56:28.721Z,17.75
2022-07-29T02:57:55.390Z,20.69
2022-07-29T03:02:15.672Z,20.94
2022-07-29T03:03:22.153Z,18.44
2022-07-29T03:04:28.612Z,18.06
2022-07-29T03:05:33.565Z,20.50
2022-07-29T03:06:39.815Z,19.37
2022-07-29T03:07:46.684Z,20.88
2022-07-29T03:08:53.477Z,17.94
2022-07-29T03:09:59.501Z,18.56
2022-07-29T03:11:04.938Z,16.87
2022-07-29T03:12:09.494Z,19.19
2022-07-29T03:13:15.268Z,19.69
2022-07-29T03:14:21.734Z,17.94
2022-07-29T03:15:29.728Z,17.00
2022-07-29T03:16:41.002Z,19.75
2022-07-29T03:17:43.470Z,15.56
2022-07-29T03:18:54.190Z,20.81
2022-07-29T03:19:57.913Z,17.81
2022-07-29T03:21:05.124Z,18.50
2022-07-29T03:22:09.316Z,20.69
2022-07-29T03:23:15.054Z,14.06
2022-07-29T03:24:36.764Z,20.00
2022-07-29T03:25:41.010Z,12.50
2022-07-29T03:26:48.305Z,15.69
2022-07-29T03:27:50.958Z,21.87
2022-07-29T03:28:56.160Z,17.94
2022-07-29T03:30:00.136Z,14.50
2022-07-29T03:31:04.204Z,17.44
2022-07-29T03:32:09.830Z,15.19
2022-07-29T03:33:14.731Z,9.56
2022-07-29T03:34:25.673Z,20.75
2022-07-29T03:35:40.681Z,16.25
2022-07-29T03:36:41.325Z,21.69
2022-07-29T03:37:46.819Z,34.94
2022-07-29T03:38:51.723Z,21.62
2022-07-29T03:39:58.227Z,20.06
2022-07-29T03:41:08.403Z,16.19
2022-07-29T03:42:17.421Z,17.12
2022-07-29T03:43:24.139Z,14.56
2022-07-29T03:44:30.258Z,13.50
2022-07-29T03:45:35.988Z,19.69
2022-07-29T03:46:42.779Z,17.50
2022-07-29T03:47:57.057Z,15.75
2022-07-29T03:49:01.671Z,14.63
2022-07-29T03:50:11.053Z,14.63
2022-07-29T03:51:14.885Z,14.56
2022-07-29T03:52:19.234Z,16.69
2022-07-29T03:53:23.944Z,19.19
2022-07-29T03:54:28.172Z,15.19
2022-07-29T03:55:35.165Z,17.75
2022-07-29T03:56:43.442Z,15.69
2022-07-29T03:57:47.664Z,15.06
2022-07-29T03:58:55.005Z,20.19
2022-07-29T04:00:01.087Z,17.69
2022-07-29T04:01:05.301Z,55.44
2022-07-29T04:02:12.305Z,26.00
2022-07-29T04:03:18.006Z,31.81
2022-07-29T04:04:22.981Z,14.19
2022-07-29T04:05:27.045Z,25.37
2022-07-29T04:06:32.524Z,16.19
2022-07-29T04:07:36.621Z,10.75
2022-07-29T04:08:40.653Z,16.00
2022-07-29T04:09:46.099Z,21.37
2022-07-29T04:10:50.203Z,22.06
2022-07-29T04:12:01.820Z,16.12
2022-07-29T04:13:01.772Z,16.31
2022-07-29T04:14:08.961Z,19.06
2022-07-29T04:15:19.446Z,15.31
2022-07-29T04:16:22.760Z,13.19
2022-07-29T04:17:26.432Z,13.31
2022-07-29T04:18:33.118Z,13.81
2022-07-29T04:19:38.801Z,14.87
2022-07-29T04:20:46.117Z,13.81
2022-07-29T04:21:50.231Z,12.50
2022-07-29T04:22:54.279Z,15.00
2022-07-29T04:23:58.353Z,15.63
2022-07-29T04:25:04.166Z,9.06
2022-07-29T04:26:10.912Z,10.19
2022-07-29T04:27:16.498Z,13.00
2022-07-29T04:28:22.351Z,15.94
2022-07-29T04:29:33.271Z,14.06
2022-07-29T04:30:42.311Z,12.31
2022-07-29T04:32:16.078Z,13.94
2022-07-29T04:32:53.621Z,13.94
2022-07-29T04:34:06.307Z,10.38
2022-07-29T04:35:12.568Z,10.56
2022-07-29T04:36:28.913Z,12.56
2022-07-29T04:37:24.065Z,16.62
2022-07-29T04:38:28.239Z,13.25
2022-07-29T04:39:32.353Z,42.62
2022-07-29T04:40:38.530Z,11.63
2022-07-29T04:41:44.004Z,8.06
2022-07-29T04:42:49.524Z,7.87
2022-07-29T04:43:56.205Z,7.44
2022-07-29T04:45:01.635Z,8.50
2022-07-29T04:46:07.452Z,9.31
2022-07-29T04:47:13.071Z,9.06
2022-07-29T04:48:17.235Z,9.06
2022-07-29T04:49:21.246Z,9.31
2022-07-29T04:50:25.620Z,7.37
2022-07-29T04:51:31.453Z,11.38
2022-07-29T04:52:37.192Z,11.38
2022-07-29T04:53:41.230Z,9.50
2022-07-29T04:54:45.141Z,7.19
2022-07-29T04:55:49.119Z,7.12
2022-07-29T04:56:53.575Z,4.00
2022-07-29T04:58:18.296Z,5.25
2022-07-29T04:59:45.658Z,6.00
2022-07-29T05:00:47.250Z,6.25
2022-07-29T05:01:49.843Z,6.44
2022-07-29T05:02:55.639Z,7.12
2022-07-29T05:04:00.717Z,5.12
2022-07-29T05:05:05.324Z,6.00
2022-07-29T05:06:16.094Z,6.44
2022-07-29T05:08:47.427Z,5.50
2022-07-29T05:09:52.968Z,4.44
2022-07-29T05:10:57.304Z,4.31
2022-07-29T05:12:08.544Z,4.75
2022-07-29T05:13:14.030Z,5.12
2022-07-29T05:14:18.624Z,4.06
2022-07-29T05:15:24.630Z,4.00
2022-07-29T05:16:29.534Z,6.06
2022-07-29T05:19:05.077Z,2.69
2022-07-29T05:20:12.665Z,5.31
2022-07-29T05:21:16.703Z,3.94
2022-07-29T05:22:25.306Z,4.50
2022-07-29T05:23:30.786Z,3.06
2022-07-29T05:24:36.324Z,3.00
2022-07-29T05:25:44.557Z,4.62
2022-07-29T05:26:50.883Z,3.44
2022-07-29T05:28:14.258Z,3.81
2022-07-29T05:29:07.035Z,3.75
2022-07-29T05:30:12.988Z,3.75
2022-07-29T05:31:17.226Z,4.94
2022-07-29T05:32:22.862Z,1.81
2022-07-29T05:33:35.887Z,5.25
2022-07-29T05:34:34.270Z,3.06
2022-07-29T05:35:40.065Z,4.37
2022-07-29T05:36:44.072Z,5.25
2022-07-29T05:37:48.155Z,4.75
2022-07-29T05:38:52.254Z,1.31
2022-07-29T05:39:59.001Z,4.00
2022-07-29T05:41:01.974Z,5.06
2022-07-29T05:42:10.898Z,5.37
2022-07-29T05:43:16.640Z,4.87
2022-07-29T05:44:25.283Z,4.56
2022-07-29T05:45:26.901Z,5.12
2022-07-29T05:46:32.140Z,5.12
2022-07-29T05:47:38.662Z,4.06
2022-07-29T05:48:44.542Z,6.00
2022-07-29T05:49:48.753Z,5.69
2022-07-29T05:50:54.703Z,4.00
2022-07-29T05:51:58.694Z,4.12
2022-07-29T05:53:19.749Z,3.94
2022-07-29T05:54:08.474Z,3.56
2022-07-29T05:55:16.407Z,4.81
2022-07-29T05:56:21.053Z,1.81
2022-07-29T05:57:27.043Z,2.87
2022-07-29T05:58:33.786Z,3.37
2022-07-29T05:59:38.341Z,3.56
2022-07-29T06:00:42.923Z,3.44
2022-07-29T06:01:48.458Z,2.19
2022-07-29T06:02:52.600Z,3.25
2022-07-29T06:03:56.587Z,4.62
2022-07-29T06:05:00.832Z,3.56
2022-07-29T06:06:05.080Z,2.75
2022-07-29T06:07:09.378Z,2.69
2022-07-29T06:08:13.584Z,2.00
2022-07-29T06:09:18.721Z,3.06
2022-07-29T06:10:24.001Z,2.81
2022-07-29T06:11:31.992Z,2.94
2022-07-29T06:12:58.118Z,2.69
2022-07-29T06:14:00.363Z,3.87
2022-07-29T06:15:04.938Z,6.44
2022-07-29T06:16:10.633Z,3.06
2022-07-29T06:17:18.039Z,3.50
2022-07-29T06:18:22.552Z,1.37
2022-07-29T06:19:28.427Z,3.19
2022-07-29T06:20:35.336Z,2.19
2022-07-29T06:21:44.357Z,3.25
2022-07-29T06:22:49.419Z,2.25
2022-07-29T06:23:53.755Z,2.69
2022-07-29T06:24:57.717Z,1.69
2022-07-29T06:26:07.520Z,1.94
2022-07-29T06:27:14.522Z,4.31
2022-07-29T06:28:18.526Z,2.12
2022-07-29T06:29:25.205Z,2.56
2022-07-29T06:30:30.616Z,2.31
2022-07-29T06:31:38.889Z,1.44
2022-07-29T06:32:44.461Z,3.00
2022-07-29T06:33:48.442Z,2.06
2022-07-29T06:34:52.580Z,2.56
2022-07-29T06:35:59.260Z,1.94
2022-07-29T06:37:08.637Z,2.50
2022-07-29T06:38:30.107Z,3.06
2022-07-29T06:39:21.078Z,3.69
2022-07-29T06:40:27.008Z,2.56
2022-07-29T06:41:31.054Z,3.25
2022-07-29T06:42:35.084Z,3.12
2022-07-29T06:43:50.337Z,1.94
2022-07-29T06:44:48.915Z,3.81
2022-07-29T06:45:52.706Z,3.81
2022-07-29T06:46:57.456Z,3.50
2022-07-29T06:48:01.583Z,2.56
2022-07-29T06:49:06.473Z,5.25
2022-07-29T06:50:13.867Z,3.37
2022-07-29T06:51:22.542Z,5.69
2022-07-29T06:52:27.257Z,5.25
2022-07-29T06:53:35.605Z,5.44
2022-07-29T06:54:39.570Z,3.75
2022-07-29T06:55:47.717Z,3.44
2022-07-29T06:56:53.393Z,2.25
2022-07-29T06:57:57.372Z,3.62
2022-07-29T06:59:01.648Z,2.06
2022-07-29T07:00:06.723Z,2.81
2022-07-29T07:01:10.849Z,2.56
2022-07-29T07:02:16.590Z,4.50
2022-07-29T07:03:21.215Z,4.75
2022-07-29T07:04:25.479Z,5.19
2022-07-29T07:05:30.573Z,5.00
2022-07-29T07:06:34.791Z,5.06
2022-07-29T07:07:41.526Z,3.50
2022-07-29T07:08:45.737Z,4.37
2022-07-29T07:10:03.267Z,2.81
2022-07-29T07:10:57.893Z,3.00
2022-07-29T07:12:01.892Z,3.62
2022-07-29T07:13:06.425Z,2.44
2022-07-29T07:14:10.680Z,4.00
2022-07-29T07:15:14.759Z,3.56
2022-07-29T07:16:21.475Z,3.56
2022-07-29T07:17:25.630Z,4.00
2022-07-29T07:18:32.066Z,4.44
2022-07-29T07:19:39.918Z,3.12
2022-07-29T07:20:44.433Z,3.31
2022-07-29T07:21:50.206Z,1.87
2022-07-29T07:22:54.366Z,3.19
2022-07-29T07:23:59.055Z,3.06
2022-07-29T07:25:03.149Z,2.75
2022-07-29T07:26:07.412Z,1.06
2022-07-29T07:27:12.699Z,3.00
2022-07-29T07:28:16.890Z,3.44
2022-07-29T07:29:23.150Z,1.87
2022-07-29T07:30:28.853Z,2.31
2022-07-29T07:31:34.656Z,2.56
2022-07-29T07:32:50.396Z,3.75
2022-07-29T07:34:44.075Z,3.19
2022-07-29T07:35:07.222Z,2.37
2022-07-29T07:36:12.781Z,14.87
2022-07-29T07:37:18.449Z,14.63
2022-07-29T07:38:25.503Z,3.62
2022-07-29T07:40:20.500Z,2.56
2022-07-29T07:40:42.514Z,3.62
2022-07-29T07:41:52.796Z,2.75
2022-07-29T07:42:58.395Z,4.25
2022-07-29T07:43:59.481Z,6.06
2022-07-29T07:45:13.616Z,3.56
2022-07-29T07:46:09.829Z,4.37
2022-07-29T07:47:14.355Z,2.75
2022-07-29T07:48:20.817Z,4.12
2022-07-29T07:49:26.576Z,3.81
2022-07-29T07:50:32.142Z,3.37
2022-07-29T07:51:36.365Z,4.69
2022-07-29T07:52:52.048Z,2.31
2022-07-29T07:53:56.160Z,4.06
2022-07-29T07:55:02.085Z,4.56
2022-07-29T07:56:12.410Z,3.19
2022-07-29T07:57:13.942Z,4.06
2022-07-29T07:58:17.975Z,4.00
2022-07-29T07:59:22.112Z,4.19
2022-07-29T08:00:27.055Z,3.62
2022-07-29T08:01:31.165Z,3.62
2022-07-29T08:02:36.844Z,4.56
2022-07-29T08:03:42.370Z,5.19
2022-07-29T08:04:46.327Z,4.81
2022-07-29T08:05:50.557Z,3.94
2022-07-29T08:06:58.723Z,5.62
2022-07-29T08:08:02.759Z,3.56
2022-07-29T08:09:28.091Z,4.25
2022-07-29T08:10:17.654Z,5.69
2022-07-29T08:11:22.482Z,5.06
2022-07-29T08:12:26.533Z,12.63
2022-07-29T08:13:30.623Z,6.37
2022-07-29T08:14:36.292Z,5.69
2022-07-29T08:15:41.485Z,6.69
2022-07-29T08:16:45.622Z,4.06
2022-07-29T08:17:49.695Z,6.19
2022-07-29T08:18:53.796Z,3.12
2022-07-29T08:19:58.109Z,2.87
2022-07-29T08:21:03.607Z,0.00
2022-07-29T08:22:07.814Z,4.69
2022-07-29T08:23:11.844Z,4.37
2022-07-29T08:24:16.018Z,4.25
2022-07-29T08:25:21.903Z,5.25
2022-07-29T08:26:27.666Z,5.69
2022-07-29T08:27:43.415Z,3.62
2022-07-29T08:28:41.168Z,5.50
2022-07-29T08:29:45.271Z,2.75
2022-07-29T08:30:49.420Z,3.06
2022-07-29T08:31:54.002Z,1.87
2022-07-29T08:33:02.011Z,5.62
2022-07-29T08:34:07.019Z,6.81
2022-07-29T08:35:11.184Z,4.94
2022-07-29T08:36:16.222Z,6.31
2022-07-29T08:37:20.202Z,7.12
2022-07-29T08:38:24.233Z,6.37
2022-07-29T08:39:28.352Z,5.12
2022-07-29T08:40:32.909Z,6.50
2022-07-29T08:41:37.881Z,5.56
2022-07-29T08:42:44.521Z,5.56
2022-07-29T08:43:51.249Z,6.25
2022-07-29T08:45:00.714Z,4.62
2022-07-29T08:46:14.515Z,4.94
2022-07-29T08:47:18.198Z,5.56
2022-07-29T08:48:24.287Z,3.50
2022-07-29T08:49:28.423Z,41.13
2022-07-29T08:50:32.932Z,6.94
2022-07-29T08:51:48.544Z,4.87
2022-07-29T08:52:45.901Z,6.62
2022-07-29T08:53:52.604Z,6.37
2022-07-29T08:54:57.062Z,5.62
2022-07-29T08:56:02.587Z,5.75
2022-07-29T08:57:07.555Z,5.37
2022-07-29T08:58:17.984Z,3.12
2022-07-29T08:59:27.514Z,5.62
2022-07-29T09:00:33.414Z,6.19
2022-07-29T09:01:42.673Z,4.25
2022-07-29T09:02:48.237Z,4.62
2022-07-29T09:03:58.356Z,5.69
2022-07-29T09:05:50.738Z,7.56
2022-07-29T09:06:11.170Z,7.00
2022-07-29T09:07:17.629Z,3.69
2022-07-29T09:08:22.294Z,5.87
2022-07-29T09:09:26.413Z,6.44
2022-07-29T09:10:32.120Z,6.94
2022-07-29T09:11:36.329Z,5.50
2022-07-29T09:12:40.578Z,5.50
2022-07-29T09:13:44.712Z,5.56
2022-07-29T09:14:48.971Z,5.31
2022-07-29T09:15:53.220Z,6.44
2022-07-29T09:16:57.894Z,5.50
2022-07-29T09:18:03.146Z,4.87
2022-07-29T09:19:10.218Z,6.37
2022-07-29T09:20:18.150Z,5.44
2022-07-29T09:21:22.271Z,5.44
2022-07-29T09:22:30.811Z,4.50
2022-07-29T09:23:34.869Z,4.12
2022-07-29T09:24:49.571Z,4.81
2022-07-29T09:25:52.403Z,7.94
2022-07-29T09:26:57.047Z,4.56
2022-07-29T09:28:14.990Z,4.00
2022-07-29T09:29:20.691Z,6.69
2022-07-29T09:30:31.753Z,6.06
2022-07-29T09:31:37.599Z,5.37
2022-07-29T09:32:55.883Z,5.69
2022-07-29T09:34:03.054Z,3.12
2022-07-29T09:35:21.903Z,8.31
2022-07-29T09:36:27.679Z,5.00
2022-07-29T09:37:31.727Z,7.19
2022-07-29T09:38:36.802Z,5.37
2022-07-29T09:39:44.441Z,6.25
2022-07-29T09:41:01.742Z,10.81
2022-07-29T09:42:07.865Z,1.75
2022-07-29T09:43:19.237Z,7.12
2022-07-29T09:44:20.323Z,5.31
2022-07-29T09:45:35.855Z,7.62
2022-07-29T09:46:41.880Z,6.69
2022-07-29T09:47:48.562Z,5.19
2022-07-29T09:49:10.295Z,4.31
2022-07-29T09:50:16.575Z,5.75
2022-07-29T09:51:25.489Z,7.00
2022-07-29T09:52:30.557Z,5.94
2022-07-29T09:53:38.612Z,4.69
2022-07-29T09:54:44.160Z,5.69
2022-07-29T09:55:53.262Z,6.00
2022-07-29T09:57:00.863Z,6.44
2022-07-29T09:58:23.618Z,7.37
2022-07-29T09:59:27.746Z,6.37
2022-07-29T10:00:35.416Z,5.75
2022-07-29T10:01:41.420Z,5.87
2022-07-29T10:02:51.272Z,3.69
2022-07-29T10:04:03.115Z,5.81
2022-07-29T10:05:07.969Z,4.87
2022-07-29T10:06:13.525Z,4.81
2022-07-29T10:07:55.227Z,4.87
2022-07-29T10:08:51.615Z,6.00
2022-07-29T10:09:58.273Z,5.06
2022-07-29T10:11:19.547Z,6.06
2022-07-29T10:12:30.772Z,5.00
2022-07-29T10:13:31.901Z,4.62
2022-07-29T10:14:39.115Z,6.81
2022-07-29T10:15:47.703Z,6.37
2022-07-29T10:16:53.732Z,6.06
2022-07-29T10:18:00.723Z,4.19
2022-07-29T10:19:04.840Z,4.37
2022-07-29T10:20:16.110Z,5.00
2022-07-29T10:21:35.054Z,5.19
2022-07-29T10:22:50.765Z,5.31
2022-07-29T10:23:46.727Z,3.62
2022-07-29T10:24:40.209Z,5.81
2022-07-29T10:25:46.815Z,7.12
2022-07-29T10:26:51.836Z,6.12
2022-07-29T10:27:56.447Z,6.62
2022-07-29T10:29:03.652Z,4.50
2022-07-29T10:30:08.372Z,3.81
2022-07-29T10:31:24.410Z,5.19
2022-07-29T10:32:35.678Z,5.37
2022-07-29T10:33:44.118Z,5.69
2022-07-29T10:34:54.209Z,5.87
2022-07-29T10:36:09.579Z,3.69
2022-07-29T10:37:23.032Z,6.44
2022-07-29T10:38:36.590Z,6.00
2022-07-29T10:40:02.859Z,5.06
2022-07-29T10:41:12.473Z,6.25
2022-07-29T10:42:33.449Z,6.31
2022-07-29T10:43:32.984Z,4.87
2022-07-29T10:44:38.957Z,4.94
2022-07-29T10:45:50.277Z,6.19
2022-07-29T10:46:59.413Z,7.06
2022-07-29T10:48:07.961Z,5.81
2022-07-29T10:49:20.217Z,5.87
2022-07-29T10:50:27.121Z,5.94
2022-07-29T10:51:50.195Z,5.31
2022-07-29T10:52:56.150Z,8.44
2022-07-29T10:54:02.754Z,5.00
2022-07-29T10:55:09.035Z,4.69
2022-07-29T10:56:30.594Z,4.94
2022-07-29T10:57:53.303Z,5.31
2022-07-29T10:59:06.310Z,5.56
2022-07-29T11:00:59.894Z,6.37
2022-07-29T11:02:42.117Z,7.50
2022-07-29T11:03:53.677Z,5.00
2022-07-29T11:05:04.014Z,7.12
2022-07-29T11:06:08.684Z,7.50
2022-07-29T11:07:15.162Z,7.69
2022-07-29T11:08:26.461Z,5.31
2022-07-29T11:09:37.530Z,27.87
2022-07-29T11:10:39.222Z,8.31
2022-07-29T11:11:51.341Z,6.37
2022-07-29T11:12:48.871Z,7.62
2022-07-29T11:14:26.571Z,3.62
2022-07-29T11:15:14.802Z,6.37
2022-07-29T11:16:21.880Z,6.62
2022-07-29T11:17:46.887Z,8.50
2022-07-29T11:19:15.950Z,4.94
2022-07-29T11:20:42.377Z,7.87
2022-07-29T11:22:05.508Z,7.56
2022-07-29T11:22:57.807Z,6.19
2022-07-29T11:24:28.578Z,9.63
2022-07-29T11:25:50.729Z,6.12
2022-07-29T11:26:33.102Z,6.56
2022-07-29T11:27:40.188Z,7.37
2022-07-29T11:29:02.156Z,5.19
2022-07-29T11:30:07.279Z,5.69
2022-07-29T11:31:23.135Z,7.62
2022-07-29T11:32:31.858Z,5.75
2022-07-29T11:33:54.815Z,6.44
2022-07-29T11:34:56.646Z,4.94
2022-07-29T11:36:16.847Z,7.06
2022-07-29T11:37:20.004Z,8.63
2022-07-29T11:38:29.287Z,8.50
2022-07-29T11:39:42.672Z,7.94
2022-07-29T11:40:49.757Z,5.94
2022-07-29T11:41:54.069Z,12.56
2022-07-29T11:42:59.707Z,5.69
2022-07-29T11:44:20.420Z,8.38
2022-07-29T11:45:43.289Z,14.31
2022-07-29T11:46:47.598Z,6.37
2022-07-29T11:48:00.724Z,6.87
2022-07-29T11:49:09.690Z,6.06
2022-07-29T11:50:17.549Z,6.31
2022-07-29T11:51:32.743Z,5.94
2022-07-29T11:52:49.594Z,8.56
2022-07-29T11:53:58.997Z,6.06
2022-07-29T11:55:00.827Z,4.87
2022-07-29T11:56:07.411Z,7.87
2022-07-29T11:57:11.492Z,7.00
2022-07-29T11:58:27.302Z,7.00
2022-07-29T11:59:40.633Z,5.19
2022-07-29T12:00:45.277Z,5.56
2022-07-29T12:02:33.178Z,4.62
2022-07-29T12:03:10.035Z,11.00
2022-07-29T12:04:15.465Z,7.37
2022-07-29T12:05:35.983Z,6.94
2022-07-29T12:06:47.514Z,6.25
2022-07-29T12:10:30.418Z,9.00
2022-07-29T12:11:28.794Z,5.31
2022-07-29T12:12:32.081Z,5.44
2022-07-29T12:13:44.492Z,9.88
2022-07-29T12:14:52.629Z,6.69
2022-07-29T12:15:59.981Z,8.00
2022-07-29T12:17:07.367Z,7.56
2022-07-29T12:18:13.083Z,6.06
2022-07-29T12:19:19.433Z,8.31
2022-07-29T12:20:30.232Z,8.50
2022-07-29T12:21:56.425Z,7.44
2022-07-29T12:22:57.239Z,7.31
2022-07-29T12:24:08.659Z,7.06
2022-07-29T12:25:33.820Z,7.25
2022-07-29T12:26:21.834Z,6.44
2022-07-29T12:27:29.567Z,6.37
2022-07-29T12:28:41.073Z,8.25
2022-07-29T12:30:08.639Z,6.75
2022-07-29T12:30:59.816Z,8.63
2022-07-29T12:33:26.015Z,7.19
2022-07-29T12:34:38.234Z,6.25
2022-07-29T12:35:43.293Z,7.94
2022-07-29T12:37:52.939Z,6.69
2022-07-29T12:37:58.186Z,7.06
2022-07-29T12:39:10.635Z,7.56
2022-07-29T12:42:08.064Z,18.69
2022-07-29T12:43:28.117Z,10.81
2022-07-29T12:44:20.563Z,6.06
2022-07-29T12:45:49.195Z,8.38
2022-07-29T12:47:07.456Z,11.25
2022-07-29T12:48:13.915Z,10.13
2022-07-29T12:49:45.469Z,7.69
2022-07-29T12:50:36.698Z,6.50
2022-07-29T12:51:47.596Z,7.50
2022-07-29T12:52:57.270Z,8.63
2022-07-29T12:54:09.966Z,8.50
2022-07-29T12:55:14.238Z,9.06
2022-07-29T12:56:41.750Z,6.62
2022-07-29T12:57:32.209Z,7.50
2022-07-29T12:58:41.145Z,3.69
2022-07-29T13:00:16.330Z,6.25
2022-07-29T13:01:25.133Z,8.94
2022-07-29T13:02:29.481Z,7.56
2022-07-29T13:03:57.720Z,6.00
2022-07-29T13:06:13.380Z,7.00
2022-07-29T13:06:38.512Z,6.69
2022-07-29T13:07:54.214Z,6.37
2022-07-29T13:08:45.040Z,5.37
2022-07-29T13:09:53.528Z,10.94
2022-07-29T13:11:00.881Z,6.31
2022-07-29T13:12:12.837Z,6.19
2022-07-29T13:13:18.503Z,8.75
2022-07-29T13:14:37.446Z,8.19
2022-07-29T13:15:45.757Z,5.94
2022-07-29T13:18:37.326Z,8.19
2022-07-29T13:21:43.046Z,9.94
2022-07-29T13:22:51.597Z,9.25
2022-07-29T13:23:55.638Z,8.50
2022-07-29T13:25:01.403Z,9.31
2022-07-29T13:26:10.039Z,6.81
2022-07-29T13:27:16.675Z,9.75
2022-07-29T13:28:22.225Z,8.50
2022-07-29T13:29:31.452Z,8.13
2022-07-29T13:30:44.449Z,7.81
2022-07-29T13:31:43.432Z,7.62
2022-07-29T13:32:47.534Z,8.56
2022-07-29T13:33:53.929Z,8.63
2022-07-29T13:34:59.097Z,7.19
2022-07-29T13:36:03.283Z,7.25
2022-07-29T13:37:07.415Z,8.00
2022-07-29T13:38:11.611Z,8.81
2022-07-29T13:39:23.760Z,7.12
2022-07-29T13:40:24.572Z,6.37
2022-07-29T13:41:28.650Z,8.81
2022-07-29T13:42:33.813Z,6.81
2022-07-29T13:43:38.142Z,9.31
2022-07-29T13:44:42.561Z,7.06
2022-07-29T13:45:48.230Z,6.62
2022-07-29T13:46:52.359Z,8.25
2022-07-29T13:47:56.433Z,8.06
2022-07-29T13:49:04.654Z,9.06
2022-07-29T13:50:13.284Z,7.50
2022-07-29T13:51:16.420Z,6.69
2022-07-29T13:52:20.917Z,8.13
2022-07-29T13:53:26.880Z,9.19
2022-07-29T13:54:31.355Z,11.75
2022-07-29T13:55:36.994Z,9.06
2022-07-29T13:56:41.738Z,10.56
2022-07-29T13:57:45.965Z,9.25
2022-07-29T13:58:50.002Z,9.94
2022-07-29T13:59:54.657Z,28.44
2022-07-29T14:01:01.042Z,20.50
2022-07-29T14:02:06.602Z,8.19
2022-07-29T14:03:10.727Z,9.25
2022-07-29T14:04:15.057Z,11.63
2022-07-29T14:05:21.247Z,9.38
2022-07-29T14:06:27.584Z,9.94
2022-07-29T14:07:38.861Z,4.19
2022-07-29T14:08:45.954Z,8.69
2022-07-29T14:09:50.089Z,6.62
2022-07-29T14:10:55.933Z,9.63
2022-07-29T14:12:03.138Z,9.19
2022-07-29T14:13:20.803Z,8.31
2022-07-29T14:14:24.937Z,7.31
2022-07-29T14:15:32.899Z,8.69
2022-07-29T14:16:42.381Z,7.62
2022-07-29T14:17:45.011Z,8.63
2022-07-29T14:18:50.533Z,12.63
2022-07-29T14:20:02.160Z,7.94
2022-07-29T14:21:11.055Z,9.19
2022-07-29T14:22:12.318Z,7.19
2022-07-29T14:23:33.768Z,8.19
2022-07-29T14:24:37.309Z,9.13
2022-07-29T14:27:10.992Z,9.50
2022-07-29T14:29:37.294Z,10.81
2022-07-29T14:32:03.187Z,9.50
2022-07-29T14:33:11.902Z,9.56
2022-07-29T14:34:16.085Z,9.88
2022-07-29T14:35:24.913Z,7.62
2022-07-29T14:36:34.936Z,8.63
2022-07-29T14:37:39.767Z,8.56
2022-07-29T14:38:46.411Z,10.13
2022-07-29T14:39:52.385Z,9.13
2022-07-29T14:41:12.111Z,8.63
2022-07-29T14:42:11.653Z,9.50
2022-07-29T14:43:19.186Z,10.81
2022-07-29T14:45:37.083Z,7.75
2022-07-29T14:46:44.058Z,8.13
2022-07-29T14:47:48.588Z,11.19
2022-07-29T14:48:57.358Z,7.50
2022-07-29T14:50:01.575Z,9.44
2022-07-29T14:51:07.902Z,7.69
2022-07-29T14:52:13.951Z,9.13
2022-07-29T14:53:29.399Z,9.56
2022-07-29T14:55:49.864Z,8.50
2022-07-29T14:56:55.467Z,10.19
2022-07-29T14:58:07.970Z,9.13
2022-07-29T14:59:05.536Z,8.94
2022-07-29T15:00:15.413Z,10.94
2022-07-29T15:01:21.070Z,10.63
2022-07-29T15:02:45.747Z,8.56
2022-07-29T15:03:34.102Z,8.31
2022-07-29T15:04:41.240Z,7.12
2022-07-29T15:05:47.147Z,7.69
2022-07-29T15:06:55.009Z,8.38
2022-07-29T15:08:02.041Z,8.69
2022-07-29T15:09:07.718Z,12.50
2022-07-29T15:10:11.937Z,9.88
2022-07-29T15:11:20.473Z,10.19
2022-07-29T15:12:24.504Z,8.94
2022-07-29T15:13:30.313Z,7.75
2022-07-29T15:14:36.068Z,8.81
2022-07-29T15:15:40.470Z,9.13
2022-07-29T15:16:46.704Z,5.31
2022-07-29T15:17:51.807Z,9.69